sensor_id;sensor_type;location;lat;lon;timestamp;P1;durP1;ratioP1;P2;durP2;ratioP2
51838;SDS011;37886;53.174;6.368;2023-09-07T00:01:29;596.60;;;544.05;;
51838;SDS011;37886;53.174;6.368;2023-09-07T00:03:56;625.70;;;565.08;;
51838;SDS011;37886;53.174;6.368;2023-09-07T00:06:22;557.88;;;505.85;;
51838;SDS011;37886;53.174;6.368;2023-09-07T00:08:47;594.10;;;538.28;;
51838;SDS011;37886;53.174;6.368;2023-09-07T00:11:13;615.70;;;555.15;;
51838;SDS011;37886;53.174;6.368;2023-09-07T00:13:39;732.20;;;654.38;;
51838;SDS011;37886;53.174;6.368;2023-09-07T00:16:05;596.92;;;540.90;;
51838;SDS011;37886;53.174;6.368;2023-09-07T00:18:31;590.00;;;535.63;;
51838;SDS011;37886;53.174;6.368;2023-09-07T00:20:58;580.25;;;525.00;;
51838;SDS011;37886;53.174;6.368;2023-09-07T00:23:24;584.58;;;530.85;;
51838;SDS011;37886;53.174;6.368;2023-09-07T00:25:50;616.00;;;558.45;;
51838;SDS011;37886;53.174;6.368;2023-09-07T00:28:16;601.45;;;544.83;;
51838;SDS011;37886;53.174;6.368;2023-09-07T00:30:42;583.28;;;531.08;;
51838;SDS011;37886;53.174;6.368;2023-09-07T00:33:08;568.72;;;515.78;;
51838;SDS011;37886;53.174;6.368;2023-09-07T00:35:34;608.75;;;556.65;;
51838;SDS011;37886;53.174;6.368;2023-09-07T00:38:00;557.70;;;506.10;;
51838;SDS011;37886;53.174;6.368;2023-09-07T00:40:26;574.75;;;523.00;;
51838;SDS011;37886;53.174;6.368;2023-09-07T00:42:51;619.05;;;560.03;;
51838;SDS011;37886;53.174;6.368;2023-09-07T00:45:18;567.78;;;515.70;;
51838;SDS011;37886;53.174;6.368;2023-09-07T00:47:44;597.00;;;541.33;;
51838;SDS011;37886;53.174;6.368;2023-09-07T00:50:10;665.35;;;597.80;;
51838;SDS011;37886;53.174;6.368;2023-09-07T00:52:39;643.58;;;588.30;;
51838;SDS011;37886;53.174;6.368;2023-09-07T00:55:07;625.00;;;562.53;;
51838;SDS011;37886;53.174;6.368;2023-09-07T00:57:33;621.00;;;558.92;;
51838;SDS011;37886;53.174;6.368;2023-09-07T00:59:59;688.22;;;618.72;;
51838;SDS011;37886;53.174;6.368;2023-09-07T01:02:25;704.08;;;630.92;;
51838;SDS011;37886;53.174;6.368;2023-09-07T01:04:51;667.67;;;603.47;;
51838;SDS011;37886;53.174;6.368;2023-09-07T01:07:21;688.58;;;619.25;;
51838;SDS011;37886;53.174;6.368;2023-09-07T01:09:51;643.13;;;580.80;;
51838;SDS011;37886;53.174;6.368;2023-09-07T01:14:46;726.78;;;651.53;;
51838;SDS011;37886;53.174;6.368;2023-09-07T01:17:12;782.38;;;698.58;;
51838;SDS011;37886;53.174;6.368;2023-09-07T01:19:39;772.20;;;690.35;;
51838;SDS011;37886;53.174;6.368;2023-09-07T01:22:06;715.42;;;642.53;;
51838;SDS011;37886;53.174;6.368;2023-09-07T01:24:33;616.63;;;560.95;;
51838;SDS011;37886;53.174;6.368;2023-09-07T01:27:02;652.78;;;588.95;;
51838;SDS011;37886;53.174;6.368;2023-09-07T01:29:29;749.25;;;670.85;;
51838;SDS011;37886;53.174;6.368;2023-09-07T01:31:56;732.50;;;660.25;;
51838;SDS011;37886;53.174;6.368;2023-09-07T01:34:22;610.30;;;553.28;;
51838;SDS011;37886;53.174;6.368;2023-09-07T01:36:48;722.83;;;649.92;;
51838;SDS011;37886;53.174;6.368;2023-09-07T01:39:14;713.72;;;642.47;;
51838;SDS011;37886;53.174;6.368;2023-09-07T01:41:42;738.03;;;664.33;;
51838;SDS011;37886;53.174;6.368;2023-09-07T01:44:08;871.22;;;776.55;;
51838;SDS011;37886;53.174;6.368;2023-09-07T01:46:33;737.42;;;661.75;;
51838;SDS011;37886;53.174;6.368;2023-09-07T01:49:01;789.45;;;706.15;;
51838;SDS011;37886;53.174;6.368;2023-09-07T01:51:27;822.45;;;734.53;;
51838;SDS011;37886;53.174;6.368;2023-09-07T01:53:53;886.75;;;788.97;;
51838;SDS011;37886;53.174;6.368;2023-09-07T01:56:19;817.50;;;730.30;;
51838;SDS011;37886;53.174;6.368;2023-09-07T01:58:45;774.63;;;696.30;;
51838;SDS011;37886;53.174;6.368;2023-09-07T02:01:20;766.72;;;688.25;;
51838;SDS011;37886;53.174;6.368;2023-09-07T02:03:46;764.92;;;686.15;;
51838;SDS011;37886;53.174;6.368;2023-09-07T02:06:12;643.08;;;581.83;;
51838;SDS011;37886;53.174;6.368;2023-09-07T02:08:38;787.38;;;704.85;;
51838;SDS011;37886;53.174;6.368;2023-09-07T02:11:05;741.85;;;665.88;;
51838;SDS011;37886;53.174;6.368;2023-09-07T02:13:31;803.72;;;718.95;;
51838;SDS011;37886;53.174;6.368;2023-09-07T02:15:56;732.08;;;658.88;;
51838;SDS011;37886;53.174;6.368;2023-09-07T02:18:22;650.47;;;590.00;;
51838;SDS011;37886;53.174;6.368;2023-09-07T02:20:48;798.33;;;715.28;;
51838;SDS011;37886;53.174;6.368;2023-09-07T02:23:13;650.25;;;589.63;;
51838;SDS011;37886;53.174;6.368;2023-09-07T02:25:40;733.67;;;659.13;;
51838;SDS011;37886;53.174;6.368;2023-09-07T02:28:06;712.47;;;641.53;;
51838;SDS011;37886;53.174;6.368;2023-09-07T02:30:31;782.05;;;700.25;;
51838;SDS011;37886;53.174;6.368;2023-09-07T02:32:57;759.45;;;681.42;;
51838;SDS011;37886;53.174;6.368;2023-09-07T02:35:23;758.13;;;679.58;;
51838;SDS011;37886;53.174;6.368;2023-09-07T02:37:48;675.78;;;612.85;;
51838;SDS011;37886;53.174;6.368;2023-09-07T02:40:14;824.85;;;738.88;;
51838;SDS011;37886;53.174;6.368;2023-09-07T02:42:41;751.42;;;676.38;;
51838;SDS011;37886;53.174;6.368;2023-09-07T02:45:10;829.13;;;742.35;;
51838;SDS011;37886;53.174;6.368;2023-09-07T02:47:36;789.08;;;708.90;;
51838;SDS011;37886;53.174;6.368;2023-09-07T02:50:02;813.05;;;729.65;;
51838;SDS011;37886;53.174;6.368;2023-09-07T02:52:28;741.08;;;670.20;;
51838;SDS011;37886;53.174;6.368;2023-09-07T02:54:54;745.70;;;672.38;;
51838;SDS011;37886;53.174;6.368;2023-09-07T02:57:20;917.38;;;817.58;;
51838;SDS011;37886;53.174;6.368;2023-09-07T02:59:45;777.35;;;699.67;;
51838;SDS011;37886;53.174;6.368;2023-09-07T03:02:11;657.97;;;600.88;;
51838;SDS011;37886;53.174;6.368;2023-09-07T03:04:37;835.95;;;748.85;;
51838;SDS011;37886;53.174;6.368;2023-09-07T03:07:03;668.58;;;605.38;;
51838;SDS011;37886;53.174;6.368;2023-09-07T03:09:28;775.70;;;698.90;;
51838;SDS011;37886;53.174;6.368;2023-09-07T03:11:54;745.05;;;671.65;;
51838;SDS011;37886;53.174;6.368;2023-09-07T03:14:20;766.83;;;689.75;;
51838;SDS011;37886;53.174;6.368;2023-09-07T03:16:45;840.92;;;755.67;;
51838;SDS011;37886;53.174;6.368;2023-09-07T03:19:13;666.30;;;608.22;;
51838;SDS011;37886;53.174;6.368;2023-09-07T03:21:39;791.78;;;710.40;;
51838;SDS011;37886;53.174;6.368;2023-09-07T03:24:05;794.65;;;712.80;;
51838;SDS011;37886;53.174;6.368;2023-09-07T03:26:31;646.80;;;588.13;;
51838;SDS011;37886;53.174;6.368;2023-09-07T03:28:56;732.67;;;658.92;;
51838;SDS011;37886;53.174;6.368;2023-09-07T03:31:22;702.15;;;633.08;;
51838;SDS011;37886;53.174;6.368;2023-09-07T03:33:48;895.20;;;799.03;;
51838;SDS011;37886;53.174;6.368;2023-09-07T03:36:14;853.92;;;765.35;;
51838;SDS011;37886;53.174;6.368;2023-09-07T03:38:40;880.65;;;787.50;;
51838;SDS011;37886;53.174;6.368;2023-09-07T03:41:07;677.33;;;615.85;;
51838;SDS011;37886;53.174;6.368;2023-09-07T03:43:33;636.30;;;579.22;;
51838;SDS011;37886;53.174;6.368;2023-09-07T03:45:59;894.00;;;798.40;;
51838;SDS011;37886;53.174;6.368;2023-09-07T03:48:24;729.40;;;661.33;;
51838;SDS011;37886;53.174;6.368;2023-09-07T03:50:50;678.95;;;615.35;;
51838;SDS011;37886;53.174;6.368;2023-09-07T03:53:15;816.22;;;732.03;;
51838;SDS011;37886;53.174;6.368;2023-09-07T03:55:42;860.30;;;769.85;;
51838;SDS011;37886;53.174;6.368;2023-09-07T03:58:09;744.03;;;670.75;;
51838;SDS011;37886;53.174;6.368;2023-09-07T04:00:38;796.70;;;715.10;;
51838;SDS011;37886;53.174;6.368;2023-09-07T04:03:05;925.00;;;826.03;;
51838;SDS011;37886;53.174;6.368;2023-09-07T04:05:31;739.67;;;667.03;;
51838;SDS011;37886;53.174;6.368;2023-09-07T04:07:57;897.53;;;801.22;;
51838;SDS011;37886;53.174;6.368;2023-09-07T04:10:24;846.72;;;760.45;;
51838;SDS011;37886;53.174;6.368;2023-09-07T04:12:50;803.45;;;722.75;;
51838;SDS011;37886;53.174;6.368;2023-09-07T04:15:15;816.65;;;733.58;;
51838;SDS011;37886;53.174;6.368;2023-09-07T04:17:41;939.15;;;838.97;;
51838;SDS011;37886;53.174;6.368;2023-09-07T04:20:07;885.75;;;792.30;;
51838;SDS011;37886;53.174;6.368;2023-09-07T04:22:34;720.28;;;652.00;;
51838;SDS011;37886;53.174;6.368;2023-09-07T04:25:00;689.08;;;624.70;;
51838;SDS011;37886;53.174;6.368;2023-09-07T04:27:26;878.83;;;785.58;;
51838;SDS011;37886;53.174;6.368;2023-09-07T04:29:52;927.40;;;828.03;;
51838;SDS011;37886;53.174;6.368;2023-09-07T04:32:18;790.63;;;710.45;;
51838;SDS011;37886;53.174;6.368;2023-09-07T04:34:44;959.40;;;856.13;;
51838;SDS011;37886;53.174;6.368;2023-09-07T04:37:11;984.15;;;877.35;;
51838;SDS011;37886;53.174;6.368;2023-09-07T04:39:38;841.00;;;753.47;;
51838;SDS011;37886;53.174;6.368;2023-09-07T04:42:05;656.15;;;596.00;;
51838;SDS011;37886;53.174;6.368;2023-09-07T04:44:30;721.00;;;652.03;;
51838;SDS011;37886;53.174;6.368;2023-09-07T04:46:56;798.50;;;718.15;;
51838;SDS011;37886;53.174;6.368;2023-09-07T04:49:25;818.42;;;734.38;;
51838;SDS011;37886;53.174;6.368;2023-09-07T04:51:54;870.08;;;778.80;;
51838;SDS011;37886;53.174;6.368;2023-09-07T04:54:20;787.40;;;708.00;;
51838;SDS011;37886;53.174;6.368;2023-09-07T04:56:45;720.80;;;651.05;;
51838;SDS011;37886;53.174;6.368;2023-09-07T04:59:11;691.83;;;626.95;;
51838;SDS011;37886;53.174;6.368;2023-09-07T05:01:37;827.15;;;741.83;;
51838;SDS011;37886;53.174;6.368;2023-09-07T05:04:02;945.05;;;843.63;;
51838;SDS011;37886;53.174;6.368;2023-09-07T05:06:29;856.15;;;766.33;;
51838;SDS011;37886;53.174;6.368;2023-09-07T05:08:54;908.53;;;811.88;;
51838;SDS011;37886;53.174;6.368;2023-09-07T05:11:20;943.75;;;841.60;;
51838;SDS011;37886;53.174;6.368;2023-09-07T05:13:46;811.28;;;730.40;;
51838;SDS011;37886;53.174;6.368;2023-09-07T05:16:11;960.35;;;857.80;;
51838;SDS011;37886;53.174;6.368;2023-09-07T05:18:37;827.70;;;743.47;;
51838;SDS011;37886;53.174;6.368;2023-09-07T05:21:15;740.88;;;669.35;;
51838;SDS011;37886;53.174;6.368;2023-09-07T05:23:41;736.83;;;665.08;;
51838;SDS011;37886;53.174;6.368;2023-09-07T05:26:07;798.40;;;717.28;;
51838;SDS011;37886;53.174;6.368;2023-09-07T05:28:33;925.33;;;826.28;;
51838;SDS011;37886;53.174;6.368;2023-09-07T05:30:58;849.72;;;761.28;;
51838;SDS011;37886;53.174;6.368;2023-09-07T05:33:24;891.67;;;797.78;;
51838;SDS011;37886;53.174;6.368;2023-09-07T05:35:50;973.83;;;868.22;;
51838;SDS011;37886;53.174;6.368;2023-09-07T05:38:15;693.10;;;628.92;;
51838;SDS011;37886;53.174;6.368;2023-09-07T05:40:42;898.05;;;802.92;;
51838;SDS011;37886;53.174;6.368;2023-09-07T05:43:09;845.05;;;757.17;;
51838;SDS011;37886;53.174;6.368;2023-09-07T05:45:41;941.58;;;841.47;;
51838;SDS011;37886;53.174;6.368;2023-09-07T05:48:07;876.75;;;784.38;;
51838;SDS011;37886;53.174;6.368;2023-09-07T05:50:34;977.83;;;871.83;;
51838;SDS011;37886;53.174;6.368;2023-09-07T05:53:01;781.97;;;704.08;;
51838;SDS011;37886;53.174;6.368;2023-09-07T05:55:26;753.60;;;680.42;;
51838;SDS011;37886;53.174;6.368;2023-09-07T05:57:55;945.45;;;843.25;;
51838;SDS011;37886;53.174;6.368;2023-09-07T06:00:22;930.63;;;832.28;;
51838;SDS011;37886;53.174;6.368;2023-09-07T06:02:48;751.03;;;676.90;;
51838;SDS011;37886;53.174;6.368;2023-09-07T06:05:14;964.80;;;857.97;;
51838;SDS011;37886;53.174;6.368;2023-09-07T06:07:40;695.85;;;628.08;;
51838;SDS011;37886;53.174;6.368;2023-09-07T06:10:06;922.72;;;823.53;;
51838;SDS011;37886;53.174;6.368;2023-09-07T06:12:32;867.28;;;775.90;;
51838;SDS011;37886;53.174;6.368;2023-09-07T06:14:59;832.50;;;747.88;;
51838;SDS011;37886;53.174;6.368;2023-09-07T06:17:25;896.33;;;801.15;;
51838;SDS011;37886;53.174;6.368;2023-09-07T06:19:52;887.22;;;793.13;;
51838;SDS011;37886;53.174;6.368;2023-09-07T06:22:18;672.42;;;609.17;;
51838;SDS011;37886;53.174;6.368;2023-09-07T06:24:44;759.97;;;683.70;;
51838;SDS011;37886;53.174;6.368;2023-09-07T06:27:10;921.72;;;820.83;;
51838;SDS011;37886;53.174;6.368;2023-09-07T06:29:35;686.42;;;621.40;;
51838;SDS011;37886;53.174;6.368;2023-09-07T06:32:01;709.13;;;640.00;;
51838;SDS011;37886;53.174;6.368;2023-09-07T06:34:27;735.88;;;663.65;;
51838;SDS011;37886;53.174;6.368;2023-09-07T06:36:53;654.63;;;593.33;;
51838;SDS011;37886;53.174;6.368;2023-09-07T06:39:18;775.88;;;697.45;;
51838;SDS011;37886;53.174;6.368;2023-09-07T06:41:47;715.75;;;647.05;;
51838;SDS011;37886;53.174;6.368;2023-09-07T06:44:13;711.92;;;645.28;;
51838;SDS011;37886;53.174;6.368;2023-09-07T06:46:39;693.65;;;628.50;;
51838;SDS011;37886;53.174;6.368;2023-09-07T06:49:05;696.90;;;630.45;;
51838;SDS011;37886;53.174;6.368;2023-09-07T06:51:31;709.75;;;641.88;;
51838;SDS011;37886;53.174;6.368;2023-09-07T06:53:57;679.90;;;614.95;;
51838;SDS011;37886;53.174;6.368;2023-09-07T06:56:23;778.47;;;699.97;;
51838;SDS011;37886;53.174;6.368;2023-09-07T06:58:49;778.58;;;697.78;;
51838;SDS011;37886;53.174;6.368;2023-09-07T07:01:16;620.67;;;566.13;;
51838;SDS011;37886;53.174;6.368;2023-09-07T07:03:42;670.38;;;606.90;;
51838;SDS011;37886;53.174;6.368;2023-09-07T07:06:07;763.88;;;685.70;;
51838;SDS011;37886;53.174;6.368;2023-09-07T07:08:33;668.45;;;611.88;;
51838;SDS011;37886;53.174;6.368;2023-09-07T07:10:59;677.20;;;612.42;;
51838;SDS011;37886;53.174;6.368;2023-09-07T07:13:25;577.30;;;524.25;;
51838;SDS011;37886;53.174;6.368;2023-09-07T07:15:51;710.22;;;642.40;;
51838;SDS011;37886;53.174;6.368;2023-09-07T07:18:16;594.47;;;541.67;;
51838;SDS011;37886;53.174;6.368;2023-09-07T07:20:43;665.38;;;608.15;;
51838;SDS011;37886;53.174;6.368;2023-09-07T07:23:09;656.42;;;593.72;;
51838;SDS011;37886;53.174;6.368;2023-09-07T07:25:35;772.78;;;693.28;;
51838;SDS011;37886;53.174;6.368;2023-09-07T07:28:05;596.63;;;543.60;;
51838;SDS011;37886;53.174;6.368;2023-09-07T07:30:38;678.80;;;613.83;;
51838;SDS011;37886;53.174;6.368;2023-09-07T07:33:07;651.70;;;588.78;;
51838;SDS011;37886;53.174;6.368;2023-09-07T07:35:34;586.45;;;535.40;;
51838;SDS011;37886;53.174;6.368;2023-09-07T07:38:01;580.80;;;529.80;;
51838;SDS011;37886;53.174;6.368;2023-09-07T07:40:29;610.20;;;558.33;;
51838;SDS011;37886;53.174;6.368;2023-09-07T07:42:55;641.58;;;587.22;;
51838;SDS011;37886;53.174;6.368;2023-09-07T07:45:21;611.72;;;558.72;;
51838;SDS011;37886;53.174;6.368;2023-09-07T07:47:49;646.95;;;592.20;;
51838;SDS011;37886;53.174;6.368;2023-09-07T07:50:16;691.03;;;635.92;;
51838;SDS011;37886;53.174;6.368;2023-09-07T07:52:42;660.80;;;608.47;;
51838;SDS011;37886;53.174;6.368;2023-09-07T07:55:09;549.75;;;502.15;;
51838;SDS011;37886;53.174;6.368;2023-09-07T07:57:35;610.75;;;555.90;;
51838;SDS011;37886;53.174;6.368;2023-09-07T08:00:05;657.30;;;592.58;;
51838;SDS011;37886;53.174;6.368;2023-09-07T08:02:32;575.95;;;526.55;;
51838;SDS011;37886;53.174;6.368;2023-09-07T08:04:57;514.58;;;470.23;;
51838;SDS011;37886;53.174;6.368;2023-09-07T08:07:24;569.58;;;520.83;;
51838;SDS011;37886;53.174;6.368;2023-09-07T08:09:50;549.22;;;503.27;;
51838;SDS011;37886;53.174;6.368;2023-09-07T08:12:16;510.48;;;465.00;;
51838;SDS011;37886;53.174;6.368;2023-09-07T08:14:42;514.78;;;465.60;;
51838;SDS011;37886;53.174;6.368;2023-09-07T08:17:08;505.77;;;459.77;;
51838;SDS011;37886;53.174;6.368;2023-09-07T08:19:34;494.63;;;452.92;;
51838;SDS011;37886;53.174;6.368;2023-09-07T08:22:00;450.23;;;406.80;;
51838;SDS011;37886;53.174;6.368;2023-09-07T08:24:28;445.95;;;409.48;;
51838;SDS011;37886;53.174;6.368;2023-09-07T08:26:54;396.67;;;361.88;;
51838;SDS011;37886;53.174;6.368;2023-09-07T08:29:22;428.90;;;391.02;;
51838;SDS011;37886;53.174;6.368;2023-09-07T08:31:51;501.40;;;459.85;;
51838;SDS011;37886;53.174;6.368;2023-09-07T08:34:20;471.92;;;433.67;;
51838;SDS011;37886;53.174;6.368;2023-09-07T08:36:47;412.30;;;374.42;;
51838;SDS011;37886;53.174;6.368;2023-09-07T08:39:15;427.15;;;391.00;;
51838;SDS011;37886;53.174;6.368;2023-09-07T08:41:41;486.08;;;447.30;;
51838;SDS011;37886;53.174;6.368;2023-09-07T08:46:41;365.40;;;334.70;;
51838;SDS011;37886;53.174;6.368;2023-09-07T08:49:10;380.88;;;349.33;;
51838;SDS011;37886;53.174;6.368;2023-09-07T08:51:36;343.30;;;313.95;;
51838;SDS011;37886;53.174;6.368;2023-09-07T08:54:03;370.63;;;340.33;;
51838;SDS011;37886;53.174;6.368;2023-09-07T08:56:33;361.77;;;329.95;;
51838;SDS011;37886;53.174;6.368;2023-09-07T08:58:59;372.60;;;342.10;;
51838;SDS011;37886;53.174;6.368;2023-09-07T09:01:25;404.50;;;372.45;;
51838;SDS011;37886;53.174;6.368;2023-09-07T09:03:56;323.75;;;297.23;;
51838;SDS011;37886;53.174;6.368;2023-09-07T09:06:22;331.30;;;304.13;;
51838;SDS011;37886;53.174;6.368;2023-09-07T09:08:49;391.83;;;356.50;;
51838;SDS011;37886;53.174;6.368;2023-09-07T09:11:17;381.88;;;345.67;;
51838;SDS011;37886;53.174;6.368;2023-09-07T09:13:44;307.45;;;283.15;;
51838;SDS011;37886;53.174;6.368;2023-09-07T09:16:10;331.27;;;301.23;;
51838;SDS011;37886;53.174;6.368;2023-09-07T09:18:37;266.15;;;242.57;;
51838;SDS011;37886;53.174;6.368;2023-09-07T09:21:04;295.13;;;273.63;;
51838;SDS011;37886;53.174;6.368;2023-09-07T09:23:34;281.17;;;257.55;;
51838;SDS011;37886;53.174;6.368;2023-09-07T09:26:01;419.30;;;379.17;;
51838;SDS011;37886;53.174;6.368;2023-09-07T09:28:31;386.13;;;354.08;;
51838;SDS011;37886;53.174;6.368;2023-09-07T09:30:58;473.23;;;428.08;;
51838;SDS011;37886;53.174;6.368;2023-09-07T09:33:25;491.55;;;445.15;;
51838;SDS011;37886;53.174;6.368;2023-09-07T09:35:53;321.92;;;293.17;;
51838;SDS011;37886;53.174;6.368;2023-09-07T09:38:19;311.10;;;282.05;;
51838;SDS011;37886;53.174;6.368;2023-09-07T09:40:45;528.40;;;477.98;;
51838;SDS011;37886;53.174;6.368;2023-09-07T09:43:12;383.58;;;347.20;;
51838;SDS011;37886;53.174;6.368;2023-09-07T09:45:38;775.15;;;703.60;;
51838;SDS011;37886;53.174;6.368;2023-09-07T09:48:04;539.40;;;487.63;;
51838;SDS011;37886;53.174;6.368;2023-09-07T09:50:31;476.77;;;431.05;;
51838;SDS011;37886;53.174;6.368;2023-09-07T09:53:05;396.20;;;357.85;;
51838;SDS011;37886;53.174;6.368;2023-09-07T09:55:34;276.25;;;250.27;;
51838;SDS011;37886;53.174;6.368;2023-09-07T09:58:00;384.33;;;350.73;;
51838;SDS011;37886;53.174;6.368;2023-09-07T10:00:29;270.15;;;249.40;;
51838;SDS011;37886;53.174;6.368;2023-09-07T10:03:01;926.88;;;840.15;;
51838;SDS011;37886;53.174;6.368;2023-09-07T10:05:30;278.42;;;257.38;;
51838;SDS011;37886;53.174;6.368;2023-09-07T10:08:00;289.00;;;267.10;;
51838;SDS011;37886;53.174;6.368;2023-09-07T10:10:34;457.40;;;413.02;;
51838;SDS011;37886;53.174;6.368;2023-09-07T10:13:01;242.30;;;223.82;;
51838;SDS011;37886;53.174;6.368;2023-09-07T10:15:29;433.50;;;392.88;;
51838;SDS011;37886;53.174;6.368;2023-09-07T10:18:14;738.63;;;668.65;;
51838;SDS011;37886;53.174;6.368;2023-09-07T10:23:21;814.38;;;739.63;;
51838;SDS011;37886;53.174;6.368;2023-09-07T10:25:49;725.75;;;657.25;;
51838;SDS011;37886;53.174;6.368;2023-09-07T10:28:20;514.78;;;467.88;;
51838;SDS011;37886;53.174;6.368;2023-09-07T10:31:03;859.53;;;781.45;;
51838;SDS011;37886;53.174;6.368;2023-09-07T10:33:33;745.13;;;677.80;;
51838;SDS011;37886;53.174;6.368;2023-09-07T10:36:03;735.25;;;673.30;;
51838;SDS011;37886;53.174;6.368;2023-09-07T10:38:30;756.17;;;694.33;;
51838;SDS011;37886;53.174;6.368;2023-09-07T10:41:00;748.15;;;686.00;;
51838;SDS011;37886;53.174;6.368;2023-09-07T10:43:29;649.20;;;591.42;;
51838;SDS011;37886;53.174;6.368;2023-09-07T10:45:57;838.78;;;764.42;;
51838;SDS011;37886;53.174;6.368;2023-09-07T10:48:25;725.95;;;666.22;;
51838;SDS011;37886;53.174;6.368;2023-09-07T10:50:54;688.72;;;633.47;;
51838;SDS011;37886;53.174;6.368;2023-09-07T10:53:29;797.47;;;728.70;;
51838;SDS011;37886;53.174;6.368;2023-09-07T10:55:57;771.83;;;707.50;;
51838;SDS011;37886;53.174;6.368;2023-09-07T10:58:30;730.25;;;669.15;;
51838;SDS011;37886;53.174;6.368;2023-09-07T11:00:57;576.22;;;534.42;;
51838;SDS011;37886;53.174;6.368;2023-09-07T11:03:27;730.33;;;664.85;;
51838;SDS011;37886;53.174;6.368;2023-09-07T11:06:00;701.10;;;643.40;;
51838;SDS011;37886;53.174;6.368;2023-09-07T11:08:46;603.92;;;559.60;;
51838;SDS011;37886;53.174;6.368;2023-09-07T11:11:12;609.38;;;562.42;;
51838;SDS011;37886;53.174;6.368;2023-09-07T11:13:38;654.28;;;604.00;;
51838;SDS011;37886;53.174;6.368;2023-09-07T11:16:07;677.75;;;624.10;;
51838;SDS011;37886;53.174;6.368;2023-09-07T11:18:34;713.65;;;655.28;;
51838;SDS011;37886;53.174;6.368;2023-09-07T11:21:03;589.78;;;546.45;;
51838;SDS011;37886;53.174;6.368;2023-09-07T11:23:34;598.13;;;554.95;;
51838;SDS011;37886;53.174;6.368;2023-09-07T11:26:07;690.88;;;634.03;;
51838;SDS011;37886;53.174;6.368;2023-09-07T11:28:33;621.05;;;576.25;;
51838;SDS011;37886;53.174;6.368;2023-09-07T11:31:00;595.00;;;550.25;;
51838;SDS011;37886;53.174;6.368;2023-09-07T11:33:25;600.53;;;555.15;;
51838;SDS011;37886;53.174;6.368;2023-09-07T11:35:52;616.03;;;572.70;;
51838;SDS011;37886;53.174;6.368;2023-09-07T11:38:21;579.83;;;539.30;;
51838;SDS011;37886;53.174;6.368;2023-09-07T11:40:47;532.00;;;495.42;;
51838;SDS011;37886;53.174;6.368;2023-09-07T11:43:15;509.13;;;474.40;;
51838;SDS011;37886;53.174;6.368;2023-09-07T11:45:42;504.92;;;466.40;;
51838;SDS011;37886;53.174;6.368;2023-09-07T11:48:09;489.65;;;456.02;;
51838;SDS011;37886;53.174;6.368;2023-09-07T11:50:36;104.85;;;97.28;;
51838;SDS011;37886;53.174;6.368;2023-09-07T11:53:03;131.63;;;122.65;;
51838;SDS011;37886;53.174;6.368;2023-09-07T11:55:29;315.50;;;294.88;;
51838;SDS011;37886;53.174;6.368;2023-09-07T11:57:55;209.98;;;195.77;;
51838;SDS011;37886;53.174;6.368;2023-09-07T12:00:21;289.20;;;270.00;;
51838;SDS011;37886;53.174;6.368;2023-09-07T12:02:47;245.73;;;229.32;;
51838;SDS011;37886;53.174;6.368;2023-09-07T12:05:13;170.98;;;159.40;;
51838;SDS011;37886;53.174;6.368;2023-09-07T12:07:41;135.73;;;126.80;;
51838;SDS011;37886;53.174;6.368;2023-09-07T12:10:08;205.43;;;192.15;;
51838;SDS011;37886;53.174;6.368;2023-09-07T12:12:39;196.52;;;183.68;;
51838;SDS011;37886;53.174;6.368;2023-09-07T12:15:05;284.45;;;266.83;;
51838;SDS011;37886;53.174;6.368;2023-09-07T12:17:32;112.65;;;105.30;;
51838;SDS011;37886;53.174;6.368;2023-09-07T12:20:00;126.82;;;118.97;;
51838;SDS011;37886;53.174;6.368;2023-09-07T12:22:26;122.82;;;115.05;;
51838;SDS011;37886;53.174;6.368;2023-09-07T12:24:52;111.70;;;104.70;;
51838;SDS011;37886;53.174;6.368;2023-09-07T12:27:18;113.65;;;106.35;;
51838;SDS011;37886;53.174;6.368;2023-09-07T12:29:44;125.47;;;117.40;;
51838;SDS011;37886;53.174;6.368;2023-09-07T12:32:10;81.43;;;76.18;;
51838;SDS011;37886;53.174;6.368;2023-09-07T12:34:36;78.57;;;73.68;;
51838;SDS011;37886;53.174;6.368;2023-09-07T12:37:04;86.80;;;81.40;;
51838;SDS011;37886;53.174;6.368;2023-09-07T12:39:30;65.20;;;60.97;;
51838;SDS011;37886;53.174;6.368;2023-09-07T12:41:56;75.93;;;70.88;;
51838;SDS011;37886;53.174;6.368;2023-09-07T12:44:22;35.20;;;32.63;;
51838;SDS011;37886;53.174;6.368;2023-09-07T12:46:48;38.30;;;35.67;;
51838;SDS011;37886;53.174;6.368;2023-09-07T12:49:14;36.78;;;34.40;;
51838;SDS011;37886;53.174;6.368;2023-09-07T12:51:40;36.72;;;33.95;;
51838;SDS011;37886;53.174;6.368;2023-09-07T12:54:06;36.60;;;34.15;;
51838;SDS011;37886;53.174;6.368;2023-09-07T12:56:32;48.80;;;45.55;;
51838;SDS011;37886;53.174;6.368;2023-09-07T12:58:58;38.33;;;35.33;;
51838;SDS011;37886;53.174;6.368;2023-09-07T13:01:27;38.60;;;36.17;;
51838;SDS011;37886;53.174;6.368;2023-09-07T13:03:53;35.78;;;33.50;;
51838;SDS011;37886;53.174;6.368;2023-09-07T13:06:19;38.58;;;35.92;;
51838;SDS011;37886;53.174;6.368;2023-09-07T13:08:44;38.28;;;35.47;;
51838;SDS011;37886;53.174;6.368;2023-09-07T13:11:11;31.80;;;29.67;;
51838;SDS011;37886;53.174;6.368;2023-09-07T13:13:36;37.40;;;35.00;;
51838;SDS011;37886;53.174;6.368;2023-09-07T13:16:03;35.97;;;33.25;;
51838;SDS011;37886;53.174;6.368;2023-09-07T13:18:29;38.50;;;36.00;;
51838;SDS011;37886;53.174;6.368;2023-09-07T13:20:55;34.25;;;32.03;;
51838;SDS011;37886;53.174;6.368;2023-09-07T13:23:26;37.35;;;34.63;;
51838;SDS011;37886;53.174;6.368;2023-09-07T13:25:53;33.78;;;31.05;;
51838;SDS011;37886;53.174;6.368;2023-09-07T13:28:22;34.17;;;31.77;;
51838;SDS011;37886;53.174;6.368;2023-09-07T13:30:49;29.52;;;27.30;;
51838;SDS011;37886;53.174;6.368;2023-09-07T13:33:15;34.88;;;32.63;;
51838;SDS011;37886;53.174;6.368;2023-09-07T13:35:41;40.75;;;37.88;;
51838;SDS011;37886;53.174;6.368;2023-09-07T13:38:07;37.83;;;35.03;;
51838;SDS011;37886;53.174;6.368;2023-09-07T13:40:33;43.20;;;40.53;;
51838;SDS011;37886;53.174;6.368;2023-09-07T13:42:58;39.13;;;36.50;;
51838;SDS011;37886;53.174;6.368;2023-09-07T13:45:24;37.75;;;34.58;;
51838;SDS011;37886;53.174;6.368;2023-09-07T13:47:50;36.17;;;33.78;;
51838;SDS011;37886;53.174;6.368;2023-09-07T13:50:16;40.85;;;37.80;;
51838;SDS011;37886;53.174;6.368;2023-09-07T13:52:41;42.70;;;39.63;;
51838;SDS011;37886;53.174;6.368;2023-09-07T13:55:07;37.35;;;34.53;;
51838;SDS011;37886;53.174;6.368;2023-09-07T13:57:33;44.25;;;41.35;;
51838;SDS011;37886;53.174;6.368;2023-09-07T13:59:59;36.13;;;33.78;;
51838;SDS011;37886;53.174;6.368;2023-09-07T14:02:25;40.90;;;38.00;;
51838;SDS011;37886;53.174;6.368;2023-09-07T14:04:51;39.20;;;36.60;;